createdAt,value
2022-08-03T00:02:16.712Z,62.70
2022-08-03T00:04:43.539Z,63.20
2022-08-03T00:07:11.328Z,67.40
2022-08-03T00:09:38.170Z,63.20
2022-08-03T00:12:05.261Z,63.30
2022-08-03T00:14:31.962Z,63.90
2022-08-03T00:16:59.225Z,63.40
2022-08-03T00:19:28.323Z,63.80
2022-08-03T00:21:55.072Z,63.80
2022-08-03T00:24:22.171Z,64.20
2022-08-03T00:26:49.110Z,66.20
2022-08-03T00:29:15.757Z,64.70
2022-08-03T00:31:52.903Z,68.70
2022-08-03T00:34:36.210Z,65.20
2022-08-03T00:37:12.496Z,65.20
2022-08-03T00:39:39.198Z,64.50
2022-08-03T00:42:05.869Z,64.70
2022-08-03T00:44:38.794Z,65.40
2022-08-03T00:47:05.480Z,65.00
2022-08-03T00:49:32.235Z,64.70
2022-08-03T00:52:00.602Z,64.80
2022-08-03T00:54:36.215Z,64.90
2022-08-03T00:57:05.037Z,65.00
2022-08-03T00:59:31.909Z,65.10
2022-08-03T01:01:59.643Z,65.00
2022-08-03T01:04:26.290Z,64.60
2022-08-03T01:07:14.213Z,64.90
2022-08-03T01:10:02.560Z,65.00
2022-08-03T01:12:34.861Z,64.60
2022-08-03T01:15:25.209Z,64.50
2022-08-03T01:17:57.454Z,64.40
2022-08-03T01:20:24.868Z,64.50
2022-08-03T01:23:06.687Z,64.90
2022-08-03T01:25:33.257Z,64.40
2022-08-03T01:28:18.673Z,64.00
2022-08-03T01:30:45.895Z,64.40
2022-08-03T01:33:17.433Z,64.00
2022-08-03T01:35:50.437Z,63.80
2022-08-03T01:38:31.972Z,64.40
2022-08-03T01:41:02.641Z,64.50
2022-08-03T01:44:26.629Z,64.70
2022-08-03T01:46:17.726Z,64.60
2022-08-03T01:48:45.964Z,64.70
2022-08-03T01:51:13.467Z,65.40
2022-08-03T01:53:42.895Z,65.00
2022-08-03T01:56:12.567Z,65.40
2022-08-03T01:58:40.595Z,66.10
2022-08-03T02:01:13.543Z,65.40
2022-08-03T02:03:59.805Z,65.40
2022-08-03T02:07:02.911Z,65.40
2022-08-03T02:09:17.189Z,65.60
2022-08-03T02:11:44.486Z,66.00
2022-08-03T02:14:11.368Z,66.20
2022-08-03T02:16:39.164Z,66.40
2022-08-03T02:19:07.253Z,66.40
2022-08-03T02:21:57.006Z,66.70
2022-08-03T02:24:25.072Z,66.60
2022-08-03T02:26:53.522Z,66.70
2022-08-03T02:29:21.802Z,66.80
2022-08-03T02:32:14.145Z,67.20
2022-08-03T02:34:42.400Z,67.40
2022-08-03T02:37:10.405Z,67.30
2022-08-03T02:39:37.608Z,67.60
2022-08-03T02:42:06.471Z,67.60
2022-08-03T02:44:33.565Z,67.90
2022-08-03T02:47:10.375Z,68.50
2022-08-03T02:49:50.419Z,68.00
2022-08-03T02:52:19.836Z,68.80
2022-08-03T02:54:47.660Z,68.40
2022-08-03T02:57:15.193Z,68.80
2022-08-03T02:59:43.982Z,71.20
2022-08-03T03:02:11.614Z,69.40
2022-08-03T03:05:00.505Z,69.20
2022-08-03T03:07:35.340Z,69.40
2022-08-03T03:10:23.608Z,69.20
2022-08-03T03:12:55.089Z,69.30
2022-08-03T03:15:22.718Z,70.30
2022-08-03T03:17:50.141Z,70.50
2022-08-03T03:20:29.164Z,70.80
2022-08-03T03:22:59.058Z,70.70
2022-08-03T03:25:26.086Z,71.70
2022-08-03T03:27:55.120Z,71.80
2022-08-03T03:30:26.972Z,72.00
2022-08-03T03:32:58.341Z,72.80
2022-08-03T03:35:26.578Z,72.00
2022-08-03T03:37:54.909Z,72.00
2022-08-03T03:40:22.034Z,72.50
2022-08-03T03:42:50.230Z,72.60
2022-08-03T03:45:17.999Z,72.70
2022-08-03T03:47:46.821Z,72.50
2022-08-03T03:50:15.171Z,72.60
2022-08-03T03:52:41.984Z,72.60
2022-08-03T03:55:09.335Z,72.90
2022-08-03T03:57:37.808Z,73.30
2022-08-03T04:00:04.672Z,73.00
2022-08-03T04:02:31.490Z,73.20
2022-08-03T04:05:18.911Z,73.10
2022-08-03T04:08:07.384Z,73.40
2022-08-03T04:10:54.714Z,73.10
2022-08-03T04:13:21.931Z,73.20
2022-08-03T04:15:48.700Z,73.40
2022-08-03T04:18:15.596Z,73.30
2022-08-03T04:20:45.527Z,73.40
2022-08-03T04:23:15.807Z,73.70
2022-08-03T04:25:43.631Z,74.20
2022-08-03T04:28:31.406Z,73.40
2022-08-03T04:30:57.967Z,74.10
2022-08-03T04:33:29.400Z,73.80
2022-08-03T04:36:01.485Z,74.30
2022-08-03T04:38:31.662Z,75.20
2022-08-03T04:40:59.220Z,74.00
2022-08-03T04:43:27.151Z,74.00
2022-08-03T04:45:57.093Z,74.10
2022-08-03T04:48:24.372Z,74.60
2022-08-03T04:50:51.273Z,74.90
2022-08-03T04:53:18.245Z,74.50
2022-08-03T04:55:46.773Z,74.70
2022-08-03T04:58:13.477Z,73.50
2022-08-03T05:00:42.170Z,74.00
2022-08-03T05:03:23.769Z,73.10
2022-08-03T05:06:01.709Z,73.80
2022-08-03T05:08:28.910Z,74.00
2022-08-03T05:10:59.123Z,73.70
2022-08-03T05:13:26.417Z,74.10
2022-08-03T05:15:54.280Z,74.20
2022-08-03T05:18:22.047Z,74.20
2022-08-03T05:20:48.669Z,73.50
2022-08-03T05:23:15.399Z,73.10
2022-08-03T05:25:49.830Z,72.60
2022-08-03T05:28:16.944Z,71.20
2022-08-03T05:30:43.774Z,71.40
2022-08-03T05:33:10.939Z,70.10
2022-08-03T05:36:00.848Z,71.50
2022-08-03T05:38:28.559Z,70.70
2022-08-03T05:40:57.579Z,69.00
2022-08-03T05:43:43.209Z,67.70
2022-08-03T05:46:12.829Z,65.40
2022-08-03T05:48:40.085Z,62.10
2022-08-03T05:51:07.836Z,57.80
2022-08-03T05:53:34.605Z,58.20
2022-08-03T05:56:02.737Z,53.10
2022-08-03T05:58:41.993Z,54.00
2022-08-03T06:01:08.709Z,46.70
2022-08-03T06:03:35.365Z,48.30
2022-08-03T06:06:01.988Z,45.50
2022-08-03T06:08:28.640Z,43.60
2022-08-03T06:10:55.346Z,43.00
2022-08-03T06:13:22.091Z,40.30
2022-08-03T06:15:50.839Z,40.40
2022-08-03T06:18:17.642Z,43.10
2022-08-03T06:20:45.376Z,43.40
2022-08-03T06:23:16.173Z,43.00
2022-08-03T06:25:44.635Z,41.90
2022-08-03T06:28:35.220Z,41.10
2022-08-03T06:31:01.199Z,38.90
2022-08-03T06:34:31.508Z,39.90
2022-08-03T06:36:15.101Z,38.40
2022-08-03T06:38:43.050Z,37.20
2022-08-03T06:41:09.676Z,35.30
2022-08-03T06:43:37.976Z,36.70
2022-08-03T06:46:06.033Z,34.20
2022-08-03T06:48:33.914Z,34.20
2022-08-03T06:51:00.540Z,32.60
2022-08-03T06:53:27.362Z,32.20
2022-08-03T06:55:55.202Z,32.80
2022-08-03T06:58:22.535Z,33.10
2022-08-03T07:00:49.374Z,33.70
2022-08-03T07:03:16.385Z,29.70
2022-08-03T07:05:47.430Z,31.10
2022-08-03T07:08:14.308Z,30.70
2022-08-03T07:10:41.197Z,30.10
2022-08-03T07:13:08.021Z,31.30
2022-08-03T07:15:54.095Z,29.30
2022-08-03T07:18:25.682Z,29.70
2022-08-03T07:20:59.943Z,29.00
2022-08-03T07:23:27.544Z,30.00
2022-08-03T07:25:57.245Z,29.90
2022-08-03T07:28:23.888Z,29.80
2022-08-03T07:30:51.620Z,29.30
2022-08-03T07:33:18.274Z,29.10
2022-08-03T07:35:45.099Z,29.30
2022-08-03T07:38:11.657Z,29.70
2022-08-03T07:40:43.166Z,29.90
2022-08-03T07:43:12.543Z,29.80
2022-08-03T07:45:39.131Z,30.70
2022-08-03T07:48:11.634Z,29.30
2022-08-03T07:50:38.997Z,29.20
2022-08-03T07:53:05.829Z,30.40
2022-08-03T07:55:32.589Z,29.50
2022-08-03T07:58:04.120Z,28.80
2022-08-03T08:00:31.358Z,29.30
2022-08-03T08:02:58.100Z,28.70
2022-08-03T08:05:26.019Z,29.20
2022-08-03T08:07:53.482Z,30.00
2022-08-03T08:10:20.396Z,29.80
2022-08-03T08:12:47.466Z,29.40
2022-08-03T08:15:14.505Z,28.90
2022-08-03T08:17:45.727Z,28.50
2022-08-03T08:20:16.158Z,29.50
2022-08-03T08:22:49.585Z,28.20
2022-08-03T08:25:19.384Z,29.20
2022-08-03T08:28:29.508Z,28.00
2022-08-03T08:30:41.337Z,28.00
2022-08-03T08:33:22.432Z,28.50
2022-08-03T08:35:53.435Z,29.20
2022-08-03T08:38:20.765Z,29.30
2022-08-03T08:40:51.110Z,27.50
2022-08-03T08:43:18.085Z,27.70
2022-08-03T08:45:45.434Z,28.30
2022-08-03T08:48:13.730Z,27.50
2022-08-03T08:50:43.396Z,27.60
2022-08-03T08:53:18.173Z,27.90
2022-08-03T08:55:59.694Z,27.40
2022-08-03T08:58:55.019Z,27.80
2022-08-03T09:01:23.046Z,27.80
2022-08-03T09:03:51.426Z,27.70
2022-08-03T09:06:18.667Z,27.20
2022-08-03T09:08:49.212Z,27.20
2022-08-03T09:11:16.646Z,26.40
2022-08-03T09:22:55.521Z,26.90
2022-08-03T09:49:15.841Z,25.90
2022-08-03T09:52:33.115Z,26.20
2022-08-03T10:13:00.973Z,26.60
2022-08-03T10:20:12.467Z,27.00
2022-08-03T10:32:17.461Z,26.60
2022-08-03T10:34:45.072Z,26.20
2022-08-03T10:40:07.821Z,26.00
2022-08-03T10:43:23.559Z,26.60
2022-08-03T10:49:40.753Z,26.30
2022-08-03T10:52:32.981Z,26.20
2022-08-03T10:55:25.972Z,27.00
2022-08-03T11:20:12.770Z,26.70
2022-08-03T11:24:03.420Z,27.00
2022-08-03T11:30:02.228Z,26.70
2022-08-03T11:32:38.332Z,26.30
2022-08-03T11:35:09.167Z,26.60
2022-08-03T11:37:36.279Z,26.40
2022-08-03T11:40:03.587Z,26.80
2022-08-03T11:42:33.262Z,27.40
2022-08-03T11:45:00.855Z,27.10
2022-08-03T11:47:28.298Z,26.50
2022-08-03T11:49:57.434Z,26.80
2022-08-03T11:52:27.251Z,27.30
2022-08-03T11:54:57.097Z,27.10
2022-08-03T11:59:18.964Z,27.20
2022-08-03T12:00:29.270Z,27.20
2022-08-03T12:02:57.465Z,27.30
2022-08-03T12:05:51.909Z,27.20
2022-08-03T12:08:30.043Z,27.20
2022-08-03T12:10:57.422Z,27.60
2022-08-03T12:14:44.927Z,27.90
2022-08-03T12:16:23.090Z,27.40
2022-08-03T12:18:56.831Z,27.40
2022-08-03T12:21:25.024Z,28.00
2022-08-03T12:23:55.969Z,27.60
2022-08-03T12:26:22.595Z,27.10
2022-08-03T12:28:49.983Z,27.10
2022-08-03T12:31:16.995Z,27.80
2022-08-03T12:33:58.861Z,27.40
2022-08-03T12:36:26.543Z,27.80
2022-08-03T12:38:57.795Z,27.60
2022-08-03T12:41:35.372Z,26.90
2022-08-03T12:44:03.527Z,27.50
2022-08-03T12:46:31.855Z,27.40
2022-08-03T12:49:01.566Z,28.20
2022-08-03T12:51:28.761Z,27.60
2022-08-03T12:53:56.148Z,27.60
2022-08-03T12:56:23.116Z,28.80
2022-08-03T12:58:54.017Z,27.80
2022-08-03T13:01:22.610Z,27.70
2022-08-03T13:03:52.926Z,28.60
2022-08-03T13:06:26.601Z,28.20
2022-08-03T13:09:07.051Z,27.20
2022-08-03T13:11:55.564Z,27.90
2022-08-03T13:14:20.812Z,27.60
2022-08-03T13:16:51.033Z,27.30
2022-08-03T13:19:17.686Z,27.20
2022-08-03T13:22:01.835Z,26.30
2022-08-03T13:24:32.180Z,26.80
2022-08-03T13:26:59.375Z,28.80
2022-08-03T13:29:26.148Z,27.60
2022-08-03T13:31:55.235Z,27.30
2022-08-03T13:34:24.921Z,27.70
2022-08-03T13:37:08.343Z,28.00
2022-08-03T13:39:57.578Z,28.70
2022-08-03T13:42:22.522Z,28.30
2022-08-03T13:44:51.354Z,28.90
2022-08-03T13:47:18.130Z,28.60
2022-08-03T13:49:59.950Z,28.60
2022-08-03T13:52:27.830Z,28.70
2022-08-03T13:54:54.570Z,28.30
2022-08-03T13:58:04.142Z,28.70
2022-08-03T14:00:09.442Z,30.50
2022-08-03T14:02:38.300Z,29.50
2022-08-03T14:05:05.411Z,29.70
2022-08-03T14:07:32.239Z,31.30
2022-08-03T14:09:58.986Z,32.80
2022-08-03T14:12:26.667Z,33.60
2022-08-03T14:14:58.372Z,33.70
2022-08-03T14:17:28.144Z,32.40
2022-08-03T14:20:36.609Z,34.00
2022-08-03T14:22:56.333Z,32.80
2022-08-03T14:25:23.115Z,33.10
2022-08-03T14:27:49.862Z,33.80
2022-08-03T14:30:16.708Z,34.40
2022-08-03T14:32:43.380Z,33.10
2022-08-03T14:35:11.162Z,35.40
2022-08-03T14:37:37.958Z,34.20
2022-08-03T14:40:07.225Z,38.60
2022-08-03T14:42:34.016Z,33.80
2022-08-03T14:45:03.618Z,33.70
2022-08-03T14:47:34.163Z,36.00
2022-08-03T14:50:31.836Z,36.30
2022-08-03T14:53:07.560Z,37.00
2022-08-03T14:55:38.928Z,35.70
2022-08-03T14:58:19.786Z,35.30
2022-08-03T15:00:49.959Z,35.40
2022-08-03T15:03:17.599Z,36.10
2022-08-03T15:05:44.653Z,36.20
2022-08-03T15:08:11.313Z,37.40
2022-08-03T15:10:44.117Z,35.20
2022-08-03T15:13:11.540Z,36.30
2022-08-03T15:15:38.460Z,36.40
2022-08-03T15:18:05.112Z,35.00
2022-08-03T15:20:43.229Z,35.60
2022-08-03T15:23:11.003Z,35.10
2022-08-03T15:26:06.493Z,35.90
2022-08-03T15:28:24.492Z,35.90
2022-08-03T15:30:51.956Z,36.00
2022-08-03T15:33:18.646Z,37.00
2022-08-03T15:35:47.132Z,36.80
2022-08-03T15:38:13.842Z,36.70
2022-08-03T15:40:41.800Z,38.20
2022-08-03T15:43:08.455Z,38.20
2022-08-03T15:45:36.682Z,39.80
2022-08-03T15:48:04.660Z,39.60
2022-08-03T15:50:31.412Z,36.30
2022-08-03T15:52:58.026Z,36.70
2022-08-03T15:55:27.239Z,36.60
2022-08-03T15:59:09.545Z,37.00
2022-08-03T16:00:43.952Z,36.10
2022-08-03T16:03:12.724Z,36.30
2022-08-03T16:05:39.454Z,37.10
2022-08-03T16:08:10.270Z,37.20
2022-08-03T16:10:40.694Z,36.90
2022-08-03T16:13:07.566Z,37.20
2022-08-03T16:15:34.426Z,37.20
2022-08-03T16:18:06.172Z,36.60
2022-08-03T16:20:34.377Z,38.20
2022-08-03T16:23:10.717Z,37.20
2022-08-03T16:25:42.205Z,37.10
2022-08-03T16:33:08.123Z,70.40
2022-08-03T16:35:34.795Z,46.90
2022-08-03T16:38:04.378Z,44.10
2022-08-03T16:40:33.616Z,46.70
2022-08-03T16:43:00.357Z,39.00
2022-08-03T16:45:27.001Z,40.50
2022-08-03T16:48:05.410Z,39.50
2022-08-03T16:50:33.092Z,39.30
2022-08-03T16:52:59.846Z,38.80
2022-08-03T16:55:43.018Z,41.10
2022-08-03T16:58:15.029Z,40.00
2022-08-03T17:00:43.839Z,39.70
2022-08-03T17:03:20.597Z,39.10
2022-08-03T17:05:51.104Z,38.60
2022-08-03T17:08:26.456Z,39.40
2022-08-03T17:10:55.070Z,39.30
2022-08-03T17:13:22.848Z,40.20
2022-08-03T17:16:01.206Z,43.20
2022-08-03T17:18:32.419Z,42.10
2022-08-03T17:21:03.291Z,42.40
2022-08-03T17:23:38.479Z,43.00
2022-08-03T17:26:20.209Z,43.90
2022-08-03T17:28:58.217Z,44.00
2022-08-03T17:34:00.349Z,42.90
2022-08-03T17:36:41.935Z,45.60
2022-08-03T17:39:14.472Z,46.00
2022-08-03T17:41:49.995Z,44.80
2022-08-03T17:44:31.165Z,44.80
2022-08-03T17:47:07.151Z,44.70
2022-08-03T17:49:39.775Z,45.00
2022-08-03T17:52:17.383Z,45.30
2022-08-03T17:55:50.851Z,45.80
2022-08-03T17:58:08.305Z,45.10
2022-08-03T18:00:54.163Z,46.20
2022-08-03T18:03:58.112Z,46.20
2022-08-03T18:06:33.361Z,46.60
2022-08-03T18:09:05.378Z,45.70
2022-08-03T18:11:51.747Z,46.00
2022-08-03T18:14:37.589Z,46.60
2022-08-03T18:17:10.289Z,46.70
2022-08-03T18:20:03.681Z,47.20
2022-08-03T18:22:26.726Z,47.40
2022-08-03T18:24:54.797Z,47.10
2022-08-03T18:27:45.648Z,47.20
2022-08-03T18:30:17.319Z,46.70
2022-08-03T18:32:44.231Z,47.40
2022-08-03T18:35:28.362Z,48.00
2022-08-03T18:38:15.646Z,48.40
2022-08-03T18:40:48.800Z,48.00
2022-08-03T18:43:17.485Z,47.80
2022-08-03T18:45:56.212Z,48.40
2022-08-03T18:48:30.689Z,48.50
2022-08-03T18:51:06.951Z,48.80
2022-08-03T18:54:02.676Z,48.30
2022-08-03T18:56:20.569Z,48.20
2022-08-03T18:59:02.811Z,47.60
2022-08-03T19:01:58.129Z,47.70
2022-08-03T19:04:33.532Z,48.40
2022-08-03T19:07:02.640Z,48.70
2022-08-03T19:09:37.251Z,49.70
2022-08-03T19:12:14.185Z,48.90
2022-08-03T19:15:00.109Z,49.50
2022-08-03T19:17:29.444Z,50.00
2022-08-03T19:20:01.552Z,50.60
2022-08-03T19:22:28.924Z,50.80
2022-08-03T19:24:58.981Z,50.90
2022-08-03T19:27:27.931Z,50.10
2022-08-03T19:29:59.583Z,50.70
2022-08-03T19:32:29.555Z,51.10
2022-08-03T19:34:59.425Z,50.80
2022-08-03T19:37:38.674Z,50.80
2022-08-03T19:40:10.982Z,50.70
2022-08-03T19:42:41.658Z,51.20
2022-08-03T19:45:11.385Z,51.10
2022-08-03T19:47:56.850Z,51.10
2022-08-03T19:50:26.816Z,51.10
2022-08-03T19:52:58.592Z,52.10
2022-08-03T19:55:28.387Z,51.90
2022-08-03T19:58:01.818Z,51.30
2022-08-03T20:00:30.505Z,52.00
2022-08-03T20:03:04.753Z,52.20
2022-08-03T20:05:52.158Z,52.40
2022-08-03T20:08:21.098Z,52.00
2022-08-03T20:10:48.105Z,52.40
2022-08-03T20:13:19.389Z,52.80
2022-08-03T20:15:46.471Z,52.80
2022-08-03T20:18:16.946Z,52.70
2022-08-03T20:20:47.300Z,52.90
2022-08-03T20:23:16.367Z,53.40
2022-08-03T20:25:58.188Z,53.20
2022-08-03T20:28:50.214Z,53.50
2022-08-03T20:31:18.546Z,54.00
2022-08-03T20:33:48.498Z,54.00
2022-08-03T20:36:17.822Z,53.80
2022-08-03T20:38:48.497Z,54.30
2022-08-03T20:41:18.881Z,54.00
2022-08-03T20:43:49.243Z,54.70
2022-08-03T20:46:30.999Z,54.90
2022-08-03T20:49:04.563Z,54.60
2022-08-03T20:51:49.820Z,54.80
2022-08-03T20:54:28.876Z,55.10
2022-08-03T20:57:07.120Z,55.30
2022-08-03T20:59:50.860Z,55.70
2022-08-03T21:02:30.542Z,55.70
2022-08-03T21:05:02.994Z,56.80
2022-08-03T21:08:04.139Z,56.60
2022-08-03T21:10:18.267Z,56.30
2022-08-03T21:12:50.965Z,56.20
2022-08-03T21:16:02.345Z,56.40
2022-08-03T21:18:05.999Z,56.60
2022-08-03T21:20:34.478Z,56.20
2022-08-03T21:23:01.373Z,56.40
2022-08-03T21:25:30.168Z,56.70
2022-08-03T21:27:56.877Z,56.60
2022-08-03T21:30:25.437Z,56.80
2022-08-03T21:32:52.919Z,56.90
2022-08-03T21:35:20.779Z,57.20
2022-08-03T21:37:47.865Z,57.60
2022-08-03T21:40:16.970Z,57.00
2022-08-03T21:42:44.981Z,57.60
2022-08-03T21:45:16.843Z,57.50
2022-08-03T21:47:44.170Z,58.40
2022-08-03T21:50:13.248Z,57.70
2022-08-03T21:52:41.980Z,57.70
2022-08-03T21:55:20.410Z,58.20
2022-08-03T21:57:51.597Z,58.20
2022-08-03T22:00:20.624Z,58.00
2022-08-03T22:02:56.083Z,58.00
2022-08-03T22:05:29.101Z,58.20
2022-08-03T22:08:10.791Z,57.20
2022-08-03T22:10:37.890Z,58.20
2022-08-03T22:13:04.670Z,59.00
2022-08-03T22:15:31.829Z,58.80
2022-08-03T22:17:59.048Z,58.80
2022-08-03T22:20:25.750Z,58.40
2022-08-03T22:22:55.923Z,58.30
2022-08-03T22:25:29.055Z,58.60
2022-08-03T22:27:56.276Z,58.70
2022-08-03T22:30:22.875Z,58.60
2022-08-03T22:32:50.996Z,58.70
2022-08-03T22:35:18.225Z,59.20
2022-08-03T22:37:45.398Z,59.10
2022-08-03T22:40:14.777Z,58.90
2022-08-03T22:42:42.154Z,58.60
2022-08-03T22:45:09.058Z,59.00
2022-08-03T22:47:36.939Z,59.30
2022-08-03T22:50:33.363Z,59.20
2022-08-03T22:52:54.369Z,58.90
2022-08-03T22:55:24.845Z,58.80
2022-08-03T22:57:55.693Z,59.10
2022-08-03T23:00:23.657Z,59.70
2022-08-03T23:02:51.165Z,58.60
2022-08-03T23:06:02.188Z,58.80
2022-08-03T23:08:12.181Z,59.40
2022-08-03T23:10:43.738Z,60.10
2022-08-03T23:13:14.484Z,59.60
2022-08-03T23:15:49.782Z,59.80
2022-08-03T23:18:17.032Z,60.10
2022-08-03T23:20:44.770Z,60.10
2022-08-03T23:23:14.354Z,60.10
2022-08-03T23:25:49.498Z,60.20
2022-08-03T23:28:16.467Z,60.60
2022-08-03T23:30:44.405Z,60.60
2022-08-03T23:33:12.379Z,61.20
2022-08-03T23:36:17.181Z,60.80
2022-08-03T23:38:46.123Z,61.30
2022-08-03T23:41:13.468Z,61.30
2022-08-03T23:43:51.502Z,61.10
2022-08-03T23:46:20.001Z,60.90
2022-08-03T23:48:46.602Z,61.80
2022-08-03T23:51:19.486Z,62.00
2022-08-03T23:53:57.681Z,62.50
2022-08-03T23:56:40.145Z,62.30
2022-08-03T23:59:23.954Z,63.00
